Birmingham, Birmingham Shuttlesworth International Airport (KBHM)

NameBirmingham Shuttlesworth International Airport
CityBirmingham
CountryUnited States
ICAOKBHM
IATABHM
Altitude650 feet
CoordinatesGoogle Map
Live Air TrafficLiveATC.net
METARKBHM 230553Z 12003KT 10SM BKN250 25/22 A3008 RMK AO2 SLP176 T02500217 10278 20250 403110211 50002
2024-07-23 05:53:00 Wind: East-Southeast (120°) 1.54 m/s - Visibility: 16093.4 m - Temperature: 25 °C - Dew point: 22 °C - Humidity: 83.5% - Pressure: 1018.63 hPa

Sorry, no flights used the airport in this database.